sensor_id;sensor_type;location;lat;lon;timestamp;P1;durP1;ratioP1;P2;durP2;ratioP2
16928;SDS011;8581;47.334;11.190;2023-02-28T00:00:34;10.17;;;9.27;;
16928;SDS011;8581;47.334;11.190;2023-02-28T00:03:05;10.17;;;9.23;;
16928;SDS011;8581;47.334;11.190;2023-02-28T00:05:37;10.03;;;9.07;;
16928;SDS011;8581;47.334;11.190;2023-02-28T00:08:08;10.80;;;9.80;;
16928;SDS011;8581;47.334;11.190;2023-02-28T00:10:40;10.83;;;9.83;;
16928;SDS011;8581;47.334;11.190;2023-02-28T00:13:12;12.90;;;11.70;;
16928;SDS011;8581;47.334;11.190;2023-02-28T00:15:43;12.10;;;10.90;;
16928;SDS011;8581;47.334;11.190;2023-02-28T00:18:15;14.40;;;13.07;;
16928;SDS011;8581;47.334;11.190;2023-02-28T00:20:46;13.70;;;12.50;;
16928;SDS011;8581;47.334;11.190;2023-02-28T00:23:18;13.97;;;12.67;;
16928;SDS011;8581;47.334;11.190;2023-02-28T00:25:50;12.90;;;11.70;;
16928;SDS011;8581;47.334;11.190;2023-02-28T00:28:21;11.77;;;10.77;;
16928;SDS011;8581;47.334;11.190;2023-02-28T00:30:53;14.20;;;12.80;;
16928;SDS011;8581;47.334;11.190;2023-02-28T00:33:24;14.07;;;12.77;;
16928;SDS011;8581;47.334;11.190;2023-02-28T00:36:03;11.80;;;10.70;;
16928;SDS011;8581;47.334;11.190;2023-02-28T00:38:34;10.50;;;9.57;;
16928;SDS011;8581;47.334;11.190;2023-02-28T00:41:06;10.53;;;9.53;;
16928;SDS011;8581;47.334;11.190;2023-02-28T00:43:38;9.70;;;8.80;;
16928;SDS011;8581;47.334;11.190;2023-02-28T00:46:09;12.13;;;11.03;;
16928;SDS011;8581;47.334;11.190;2023-02-28T00:48:41;11.60;;;10.50;;
16928;SDS011;8581;47.334;11.190;2023-02-28T00:51:12;10.10;;;9.20;;
16928;SDS011;8581;47.334;11.190;2023-02-28T00:53:44;10.73;;;9.83;;
16928;SDS011;8581;47.334;11.190;2023-02-28T00:56:15;12.23;;;11.07;;
16928;SDS011;8581;47.334;11.190;2023-02-28T00:58:47;11.00;;;9.90;;
16928;SDS011;8581;47.334;11.190;2023-02-28T01:01:19;12.60;;;11.40;;
16928;SDS011;8581;47.334;11.190;2023-02-28T01:03:50;14.00;;;12.70;;
16928;SDS011;8581;47.334;11.190;2023-02-28T01:06:22;15.93;;;14.43;;
16928;SDS011;8581;47.334;11.190;2023-02-28T01:08:53;15.97;;;14.57;;
16928;SDS011;8581;47.334;11.190;2023-02-28T01:11:25;15.77;;;14.27;;
16928;SDS011;8581;47.334;11.190;2023-02-28T01:13:57;15.13;;;13.63;;
16928;SDS011;8581;47.334;11.190;2023-02-28T01:16:28;12.80;;;11.57;;
16928;SDS011;8581;47.334;11.190;2023-02-28T01:19:00;10.83;;;9.90;;
16928;SDS011;8581;47.334;11.190;2023-02-28T01:21:31;13.43;;;12.13;;
16928;SDS011;8581;47.334;11.190;2023-02-28T01:24:04;15.80;;;14.30;;
16928;SDS011;8581;47.334;11.190;2023-02-28T01:26:35;17.50;;;15.93;;
16928;SDS011;8581;47.334;11.190;2023-02-28T01:29:07;20.53;;;18.60;;
16928;SDS011;8581;47.334;11.190;2023-02-28T01:31:38;20.00;;;18.03;;
16928;SDS011;8581;47.334;11.190;2023-02-28T01:34:10;20.10;;;18.10;;
16928;SDS011;8581;47.334;11.190;2023-02-28T01:36:41;22.73;;;20.50;;
16928;SDS011;8581;47.334;11.190;2023-02-28T01:39:13;23.83;;;21.33;;
16928;SDS011;8581;47.334;11.190;2023-02-28T01:41:45;26.43;;;23.47;;
16928;SDS011;8581;47.334;11.190;2023-02-28T01:47:00;24.73;;;22.23;;
16928;SDS011;8581;47.334;11.190;2023-02-28T01:49:31;25.63;;;22.83;;
16928;SDS011;8581;47.334;11.190;2023-02-28T01:52:03;29.17;;;25.77;;
16928;SDS011;8581;47.334;11.190;2023-02-28T01:54:35;27.83;;;24.83;;
16928;SDS011;8581;47.334;11.190;2023-02-28T01:57:09;28.33;;;24.70;;
16928;SDS011;8581;47.334;11.190;2023-02-28T01:59:42;28.50;;;25.50;;
16928;SDS011;8581;47.334;11.190;2023-02-28T02:02:16;28.50;;;24.90;;
16928;SDS011;8581;47.334;11.190;2023-02-28T02:04:50;29.50;;;25.90;;
16928;SDS011;8581;47.334;11.190;2023-02-28T02:07:21;31.43;;;26.53;;
16928;SDS011;8581;47.334;11.190;2023-02-28T02:10:00;29.73;;;25.70;;
16928;SDS011;8581;47.334;11.190;2023-02-28T02:15:22;30.47;;;25.33;;
16928;SDS011;8581;47.334;11.190;2023-02-28T02:17:55;27.00;;;23.70;;
16928;SDS011;8581;47.334;11.190;2023-02-28T02:20:37;28.00;;;23.43;;
16928;SDS011;8581;47.334;11.190;2023-02-28T02:23:14;28.40;;;24.17;;
16928;SDS011;8581;47.334;11.190;2023-02-28T02:25:49;27.57;;;23.67;;
16928;SDS011;8581;47.334;11.190;2023-02-28T02:28:34;27.03;;;23.20;;
16928;SDS011;8581;47.334;11.190;2023-02-28T02:31:17;28.83;;;23.80;;
16928;SDS011;8581;47.334;11.190;2023-02-28T02:37:01;34.50;;;24.50;;
16928;SDS011;8581;47.334;11.190;2023-02-28T02:42:21;32.83;;;24.07;;
16928;SDS011;8581;47.334;11.190;2023-02-28T02:44:55;26.83;;;23.97;;
16928;SDS011;8581;47.334;11.190;2023-02-28T02:47:26;28.03;;;24.37;;
16928;SDS011;8581;47.334;11.190;2023-02-28T02:49:57;27.30;;;23.93;;
16928;SDS011;8581;47.334;11.190;2023-02-28T02:52:30;28.37;;;24.57;;
16928;SDS011;8581;47.334;11.190;2023-02-28T02:54:59;28.33;;;23.47;;
16928;SDS011;8581;47.334;11.190;2023-02-28T02:57:33;26.63;;;23.77;;
16928;SDS011;8581;47.334;11.190;2023-02-28T03:00:06;25.60;;;22.80;;
16928;SDS011;8581;47.334;11.190;2023-02-28T03:02:39;24.00;;;21.50;;
16928;SDS011;8581;47.334;11.190;2023-02-28T03:05:19;24.63;;;22.03;;
16928;SDS011;8581;47.334;11.190;2023-02-28T03:07:54;23.53;;;21.03;;
16928;SDS011;8581;47.334;11.190;2023-02-28T03:10:27;22.23;;;19.83;;
16928;SDS011;8581;47.334;11.190;2023-02-28T03:13:03;21.63;;;19.33;;
16928;SDS011;8581;47.334;11.190;2023-02-28T03:15:34;21.10;;;18.90;;
16928;SDS011;8581;47.334;11.190;2023-02-28T03:18:08;21.30;;;19.10;;
16928;SDS011;8581;47.334;11.190;2023-02-28T03:21:00;21.73;;;19.53;;
16928;SDS011;8581;47.334;11.190;2023-02-28T03:23:42;22.40;;;19.43;;
16928;SDS011;8581;47.334;11.190;2023-02-28T03:26:21;20.27;;;18.20;;
16928;SDS011;8581;47.334;11.190;2023-02-28T03:28:57;21.10;;;18.90;;
16928;SDS011;8581;47.334;11.190;2023-02-28T03:31:32;20.77;;;17.97;;
16928;SDS011;8581;47.334;11.190;2023-02-28T03:34:09;19.67;;;17.57;;
16928;SDS011;8581;47.334;11.190;2023-02-28T03:36:44;20.60;;;17.97;;
16928;SDS011;8581;47.334;11.190;2023-02-28T03:39:17;19.37;;;17.17;;
16928;SDS011;8581;47.334;11.190;2023-02-28T03:41:51;20.33;;;18.23;;
16928;SDS011;8581;47.334;11.190;2023-02-28T03:44:25;19.67;;;17.63;;
16928;SDS011;8581;47.334;11.190;2023-02-28T03:46:58;18.60;;;16.70;;
16928;SDS011;8581;47.334;11.190;2023-02-28T03:49:33;20.10;;;18.07;;
16928;SDS011;8581;47.334;11.190;2023-02-28T03:52:04;19.87;;;17.77;;
16928;SDS011;8581;47.334;11.190;2023-02-28T03:54:41;19.97;;;17.90;;
16928;SDS011;8581;47.334;11.190;2023-02-28T03:57:15;20.00;;;17.27;;
16928;SDS011;8581;47.334;11.190;2023-02-28T03:59:52;17.53;;;15.70;;
16928;SDS011;8581;47.334;11.190;2023-02-28T04:02:21;17.70;;;15.90;;
16928;SDS011;8581;47.334;11.190;2023-02-28T04:04:53;16.27;;;14.67;;
16928;SDS011;8581;47.334;11.190;2023-02-28T04:07:29;18.17;;;16.37;;
16928;SDS011;8581;47.334;11.190;2023-02-28T04:09:56;18.80;;;16.50;;
16928;SDS011;8581;47.334;11.190;2023-02-28T04:12:28;16.93;;;15.03;;
16928;SDS011;8581;47.334;11.190;2023-02-28T04:14:59;17.80;;;15.90;;
16928;SDS011;8581;47.334;11.190;2023-02-28T04:17:31;15.90;;;14.30;;
16928;SDS011;8581;47.334;11.190;2023-02-28T04:20:03;15.40;;;13.90;;
16928;SDS011;8581;47.334;11.190;2023-02-28T04:22:35;15.20;;;13.70;;
16928;SDS011;8581;47.334;11.190;2023-02-28T04:25:07;14.57;;;13.17;;
16928;SDS011;8581;47.334;11.190;2023-02-28T04:27:39;14.30;;;12.87;;
16928;SDS011;8581;47.334;11.190;2023-02-28T04:30:11;13.23;;;11.93;;
16928;SDS011;8581;47.334;11.190;2023-02-28T04:32:43;15.13;;;12.70;;
16928;SDS011;8581;47.334;11.190;2023-02-28T04:35:15;13.27;;;11.87;;
16928;SDS011;8581;47.334;11.190;2023-02-28T04:37:46;12.67;;;11.37;;
16928;SDS011;8581;47.334;11.190;2023-02-28T04:40:18;12.77;;;11.57;;
16928;SDS011;8581;47.334;11.190;2023-02-28T04:42:49;13.33;;;12.03;;
16928;SDS011;8581;47.334;11.190;2023-02-28T04:45:22;12.33;;;11.20;;
16928;SDS011;8581;47.334;11.190;2023-02-28T04:47:53;12.83;;;11.53;;
16928;SDS011;8581;47.334;11.190;2023-02-28T04:50:25;11.10;;;10.00;;
16928;SDS011;8581;47.334;11.190;2023-02-28T04:52:56;11.20;;;10.10;;
16928;SDS011;8581;47.334;11.190;2023-02-28T04:55:28;11.00;;;9.90;;
16928;SDS011;8581;47.334;11.190;2023-02-28T04:58:00;10.97;;;9.87;;
16928;SDS011;8581;47.334;11.190;2023-02-28T05:00:31;11.57;;;9.83;;
16928;SDS011;8581;47.334;11.190;2023-02-28T05:03:03;10.37;;;9.37;;
16928;SDS011;8581;47.334;11.190;2023-02-28T05:05:35;10.13;;;9.13;;
16928;SDS011;8581;47.334;11.190;2023-02-28T05:08:06;11.37;;;9.57;;
16928;SDS011;8581;47.334;11.190;2023-02-28T05:10:38;12.27;;;10.53;;
16928;SDS011;8581;47.334;11.190;2023-02-28T05:13:11;12.20;;;10.70;;
16928;SDS011;8581;47.334;11.190;2023-02-28T05:15:43;11.33;;;10.23;;
16928;SDS011;8581;47.334;11.190;2023-02-28T05:18:14;11.13;;;10.03;;
16928;SDS011;8581;47.334;11.190;2023-02-28T05:20:46;10.40;;;9.30;;
16928;SDS011;8581;47.334;11.190;2023-02-28T05:23:17;10.00;;;9.03;;
16928;SDS011;8581;47.334;11.190;2023-02-28T05:25:49;10.93;;;9.87;;
16928;SDS011;8581;47.334;11.190;2023-02-28T05:28:21;11.07;;;9.97;;
16928;SDS011;8581;47.334;11.190;2023-02-28T05:30:52;10.87;;;9.77;;
16928;SDS011;8581;47.334;11.190;2023-02-28T05:33:24;10.53;;;9.40;;
16928;SDS011;8581;47.334;11.190;2023-02-28T05:35:55;10.30;;;9.20;;
16928;SDS011;8581;47.334;11.190;2023-02-28T05:38:27;10.47;;;9.47;;
16928;SDS011;8581;47.334;11.190;2023-02-28T05:40:58;10.53;;;9.53;;
16928;SDS011;8581;47.334;11.190;2023-02-28T05:43:30;11.47;;;9.97;;
16928;SDS011;8581;47.334;11.190;2023-02-28T05:46:02;9.90;;;8.60;;
16928;SDS011;8581;47.334;11.190;2023-02-28T05:48:34;9.93;;;8.93;;
16928;SDS011;8581;47.334;11.190;2023-02-28T05:51:05;10.27;;;9.17;;
16928;SDS011;8581;47.334;11.190;2023-02-28T05:53:36;10.60;;;9.27;;
16928;SDS011;8581;47.334;11.190;2023-02-28T05:56:08;10.90;;;9.53;;
16928;SDS011;8581;47.334;11.190;2023-02-28T05:58:40;10.73;;;9.63;;
16928;SDS011;8581;47.334;11.190;2023-02-28T06:03:52;12.43;;;10.53;;
16928;SDS011;8581;47.334;11.190;2023-02-28T06:06:23;12.37;;;10.67;;
16928;SDS011;8581;47.334;11.190;2023-02-28T06:08:55;15.07;;;12.30;;
16928;SDS011;8581;47.334;11.190;2023-02-28T06:11:27;15.00;;;12.53;;
16928;SDS011;8581;47.334;11.190;2023-02-28T06:13:59;15.30;;;12.60;;
16928;SDS011;8581;47.334;11.190;2023-02-28T06:16:32;13.57;;;12.17;;
16928;SDS011;8581;47.334;11.190;2023-02-28T06:19:03;14.33;;;12.83;;
16928;SDS011;8581;47.334;11.190;2023-02-28T06:21:34;13.33;;;11.93;;
16928;SDS011;8581;47.334;11.190;2023-02-28T06:24:06;12.20;;;11.00;;
16928;SDS011;8581;47.334;11.190;2023-02-28T06:26:38;13.77;;;12.37;;
16928;SDS011;8581;47.334;11.190;2023-02-28T06:29:09;13.93;;;12.53;;
16928;SDS011;8581;47.334;11.190;2023-02-28T06:31:41;13.93;;;12.50;;
16928;SDS011;8581;47.334;11.190;2023-02-28T06:34:13;15.00;;;13.40;;
16928;SDS011;8581;47.334;11.190;2023-02-28T06:36:44;14.23;;;12.83;;
16928;SDS011;8581;47.334;11.190;2023-02-28T06:39:16;13.50;;;12.10;;
16928;SDS011;8581;47.334;11.190;2023-02-28T06:41:47;13.47;;;12.17;;
16928;SDS011;8581;47.334;11.190;2023-02-28T06:44:19;15.07;;;13.57;;
16928;SDS011;8581;47.334;11.190;2023-02-28T06:46:50;16.13;;;14.53;;
16928;SDS011;8581;47.334;11.190;2023-02-28T06:49:22;15.20;;;13.70;;
16928;SDS011;8581;47.334;11.190;2023-02-28T06:51:54;15.87;;;13.67;;
16928;SDS011;8581;47.334;11.190;2023-02-28T06:54:25;13.17;;;11.83;;
16928;SDS011;8581;47.334;11.190;2023-02-28T06:56:57;13.83;;;12.43;;
16928;SDS011;8581;47.334;11.190;2023-02-28T06:59:28;12.43;;;11.13;;
16928;SDS011;8581;47.334;11.190;2023-02-28T07:02:00;13.27;;;11.97;;
16928;SDS011;8581;47.334;11.190;2023-02-28T07:04:32;11.00;;;9.97;;
16928;SDS011;8581;47.334;11.190;2023-02-28T07:07:03;16.13;;;13.33;;
16928;SDS011;8581;47.334;11.190;2023-02-28T07:09:35;13.17;;;11.97;;
16928;SDS011;8581;47.334;11.190;2023-02-28T07:12:07;11.93;;;10.77;;
16928;SDS011;8581;47.334;11.190;2023-02-28T07:14:38;13.73;;;12.43;;
16928;SDS011;8581;47.334;11.190;2023-02-28T07:17:10;15.63;;;14.13;;
16928;SDS011;8581;47.334;11.190;2023-02-28T07:19:41;13.37;;;12.10;;
16928;SDS011;8581;47.334;11.190;2023-02-28T07:22:13;15.00;;;13.50;;
16928;SDS011;8581;47.334;11.190;2023-02-28T07:24:45;13.30;;;12.00;;
16928;SDS011;8581;47.334;11.190;2023-02-28T07:27:16;14.40;;;13.00;;
16928;SDS011;8581;47.334;11.190;2023-02-28T07:29:48;12.83;;;10.67;;
16928;SDS011;8581;47.334;11.190;2023-02-28T07:32:19;13.60;;;12.40;;
16928;SDS011;8581;47.334;11.190;2023-02-28T07:34:51;10.80;;;9.80;;
16928;SDS011;8581;47.334;11.190;2023-02-28T07:37:23;11.10;;;10.07;;
16928;SDS011;8581;47.334;11.190;2023-02-28T07:39:54;11.87;;;10.77;;
16928;SDS011;8581;47.334;11.190;2023-02-28T07:42:26;12.83;;;11.63;;
16928;SDS011;8581;47.334;11.190;2023-02-28T07:44:57;11.40;;;10.20;;
16928;SDS011;8581;47.334;11.190;2023-02-28T07:47:29;13.97;;;12.57;;
16928;SDS011;8581;47.334;11.190;2023-02-28T07:50:01;11.37;;;10.30;;
16928;SDS011;8581;47.334;11.190;2023-02-28T07:52:32;12.60;;;11.40;;
16928;SDS011;8581;47.334;11.190;2023-02-28T07:55:04;12.40;;;11.17;;
16928;SDS011;8581;47.334;11.190;2023-02-28T07:57:37;11.53;;;10.43;;
16928;SDS011;8581;47.334;11.190;2023-02-28T08:00:09;8.63;;;7.83;;
16928;SDS011;8581;47.334;11.190;2023-02-28T08:02:42;8.70;;;7.90;;
16928;SDS011;8581;47.334;11.190;2023-02-28T08:05:13;9.13;;;8.33;;
16928;SDS011;8581;47.334;11.190;2023-02-28T08:07:45;9.40;;;8.50;;
16928;SDS011;8581;47.334;11.190;2023-02-28T08:10:17;9.30;;;8.40;;
16928;SDS011;8581;47.334;11.190;2023-02-28T08:12:48;9.27;;;7.93;;
16928;SDS011;8581;47.334;11.190;2023-02-28T08:15:20;6.30;;;5.80;;
16928;SDS011;8581;47.334;11.190;2023-02-28T08:17:51;6.10;;;5.60;;
16928;SDS011;8581;47.334;11.190;2023-02-28T08:20:23;7.67;;;6.97;;
16928;SDS011;8581;47.334;11.190;2023-02-28T08:22:55;8.47;;;7.20;;
16928;SDS011;8581;47.334;11.190;2023-02-28T08:25:26;7.20;;;6.50;;
16928;SDS011;8581;47.334;11.190;2023-02-28T08:27:58;9.17;;;6.40;;
16928;SDS011;8581;47.334;11.190;2023-02-28T08:30:29;6.53;;;5.83;;
16928;SDS011;8581;47.334;11.190;2023-02-28T08:33:01;6.33;;;5.83;;
16928;SDS011;8581;47.334;11.190;2023-02-28T08:35:34;6.93;;;6.33;;
16928;SDS011;8581;47.334;11.190;2023-02-28T08:38:04;6.23;;;5.73;;
16928;SDS011;8581;47.334;11.190;2023-02-28T08:40:36;7.30;;;6.60;;
16928;SDS011;8581;47.334;11.190;2023-02-28T08:43:07;6.73;;;6.13;;
16928;SDS011;8581;47.334;11.190;2023-02-28T08:45:39;7.90;;;7.20;;
16928;SDS011;8581;47.334;11.190;2023-02-28T08:48:10;7.77;;;6.90;;
16928;SDS011;8581;47.334;11.190;2023-02-28T08:50:42;7.70;;;6.90;;
16928;SDS011;8581;47.334;11.190;2023-02-28T08:53:14;4.93;;;4.53;;
16928;SDS011;8581;47.334;11.190;2023-02-28T08:55:45;4.90;;;4.50;;
16928;SDS011;8581;47.334;11.190;2023-02-28T08:58:17;4.43;;;3.60;;
16928;SDS011;8581;47.334;11.190;2023-02-28T09:00:48;3.93;;;3.53;;
16928;SDS011;8581;47.334;11.190;2023-02-28T09:03:20;5.50;;;5.00;;
16928;SDS011;8581;47.334;11.190;2023-02-28T09:05:56;8.23;;;7.50;;
16928;SDS011;8581;47.334;11.190;2023-02-28T09:08:28;10.83;;;9.60;;
16928;SDS011;8581;47.334;11.190;2023-02-28T09:10:59;10.50;;;9.40;;
16928;SDS011;8581;47.334;11.190;2023-02-28T09:13:31;8.80;;;7.77;;
16928;SDS011;8581;47.334;11.190;2023-02-28T09:16:03;8.93;;;8.03;;
16928;SDS011;8581;47.334;11.190;2023-02-28T09:18:34;8.77;;;7.90;;
16928;SDS011;8581;47.334;11.190;2023-02-28T09:21:07;7.63;;;6.93;;
16928;SDS011;8581;47.334;11.190;2023-02-28T09:23:37;8.37;;;7.57;;
16928;SDS011;8581;47.334;11.190;2023-02-28T09:26:17;7.77;;;7.03;;
16928;SDS011;8581;47.334;11.190;2023-02-28T09:28:53;6.23;;;5.63;;
16928;SDS011;8581;47.334;11.190;2023-02-28T09:31:25;5.57;;;4.80;;
16928;SDS011;8581;47.334;11.190;2023-02-28T09:33:56;6.03;;;5.43;;
16928;SDS011;8581;47.334;11.190;2023-02-28T09:36:27;5.83;;;4.43;;
16928;SDS011;8581;47.334;11.190;2023-02-28T09:38:59;4.40;;;4.00;;
16928;SDS011;8581;47.334;11.190;2023-02-28T09:41:37;4.47;;;3.80;;
16928;SDS011;8581;47.334;11.190;2023-02-28T09:44:24;4.03;;;3.73;;
16928;SDS011;8581;47.334;11.190;2023-02-28T09:47:01;3.93;;;3.63;;
16928;SDS011;8581;47.334;11.190;2023-02-28T09:49:34;4.10;;;3.77;;
16928;SDS011;8581;47.334;11.190;2023-02-28T09:52:05;3.80;;;3.50;;
16928;SDS011;8581;47.334;11.190;2023-02-28T09:54:36;4.83;;;3.97;;
16928;SDS011;8581;47.334;11.190;2023-02-28T09:57:10;5.10;;;4.60;;
16928;SDS011;8581;47.334;11.190;2023-02-28T10:00:06;5.20;;;4.40;;
16928;SDS011;8581;47.334;11.190;2023-02-28T10:03:51;4.60;;;4.20;;
16928;SDS011;8581;47.334;11.190;2023-02-28T10:05:49;5.60;;;4.10;;
16928;SDS011;8581;47.334;11.190;2023-02-28T10:08:21;5.33;;;4.87;;
16928;SDS011;8581;47.334;11.190;2023-02-28T10:10:51;5.70;;;5.20;;
16928;SDS011;8581;47.334;11.190;2023-02-28T10:13:27;6.83;;;6.23;;
16928;SDS011;8581;47.334;11.190;2023-02-28T10:16:05;6.63;;;6.03;;
16928;SDS011;8581;47.334;11.190;2023-02-28T10:18:46;6.13;;;4.67;;
16928;SDS011;8581;47.334;11.190;2023-02-28T10:21:24;5.97;;;5.17;;
16928;SDS011;8581;47.334;11.190;2023-02-28T10:24:17;6.00;;;5.50;;
16928;SDS011;8581;47.334;11.190;2023-02-28T10:26:52;6.00;;;5.10;;
16928;SDS011;8581;47.334;11.190;2023-02-28T10:29:27;4.90;;;4.40;;
16928;SDS011;8581;47.334;11.190;2023-02-28T10:31:58;6.57;;;4.73;;
16928;SDS011;8581;47.334;11.190;2023-02-28T10:34:29;6.07;;;4.03;;
16928;SDS011;8581;47.334;11.190;2023-02-28T10:37:01;4.80;;;4.27;;
16928;SDS011;8581;47.334;11.190;2023-02-28T10:39:36;5.10;;;4.60;;
16928;SDS011;8581;47.334;11.190;2023-02-28T10:47:49;4.03;;;3.63;;
16928;SDS011;8581;47.334;11.190;2023-02-28T10:55:36;4.13;;;3.83;;
16928;SDS011;8581;47.334;11.190;2023-02-28T10:58:20;3.50;;;3.20;;
16928;SDS011;8581;47.334;11.190;2023-02-28T11:00:51;2.47;;;2.27;;
16928;SDS011;8581;47.334;11.190;2023-02-28T11:03:32;2.73;;;2.53;;
16928;SDS011;8581;47.334;11.190;2023-02-28T11:06:06;2.30;;;2.07;;
16928;SDS011;8581;47.334;11.190;2023-02-28T11:08:43;2.12;;;2.02;;
16928;SDS011;8581;47.334;11.190;2023-02-28T11:11:15;2.10;;;2.00;;
16928;SDS011;8581;47.334;11.190;2023-02-28T11:13:47;2.20;;;2.00;;
16928;SDS011;8581;47.334;11.190;2023-02-28T11:16:18;2.47;;;2.27;;
16928;SDS011;8581;47.334;11.190;2023-02-28T11:18:52;2.42;;;2.22;;
16928;SDS011;8581;47.334;11.190;2023-02-28T11:21:26;2.50;;;2.27;;
16928;SDS011;8581;47.334;11.190;2023-02-28T11:24:04;1.87;;;1.75;;
16928;SDS011;8581;47.334;11.190;2023-02-28T11:26:51;2.77;;;2.58;;
16928;SDS011;8581;47.334;11.190;2023-02-28T11:29:24;3.37;;;2.80;;
16928;SDS011;8581;47.334;11.190;2023-02-28T11:34:44;3.65;;;3.35;;
16928;SDS011;8581;47.334;11.190;2023-02-28T11:37:17;3.42;;;3.15;;
16928;SDS011;8581;47.334;11.190;2023-02-28T11:39:47;3.60;;;2.55;;
16928;SDS011;8581;47.334;11.190;2023-02-28T11:42:27;3.30;;;3.10;;
16928;SDS011;8581;47.334;11.190;2023-02-28T11:45:18;3.77;;;3.47;;
16928;SDS011;8581;47.334;11.190;2023-02-28T11:47:56;2.98;;;2.77;;
16928;SDS011;8581;47.334;11.190;2023-02-28T11:53:14;2.85;;;2.65;;
16928;SDS011;8581;47.334;11.190;2023-02-28T11:55:46;3.35;;;3.05;;
16928;SDS011;8581;47.334;11.190;2023-02-28T11:58:24;4.20;;;2.80;;
16928;SDS011;8581;47.334;11.190;2023-02-28T12:01:03;3.90;;;3.60;;
16928;SDS011;8581;47.334;11.190;2023-02-28T12:03:40;3.70;;;3.40;;
16928;SDS011;8581;47.334;11.190;2023-02-28T12:06:19;3.12;;;2.92;;
16928;SDS011;8581;47.334;11.190;2023-02-28T12:09:45;3.98;;;3.67;;
16928;SDS011;8581;47.334;11.190;2023-02-28T12:12:10;2.80;;;2.60;;
16928;SDS011;8581;47.334;11.190;2023-02-28T12:15:15;4.95;;;4.55;;
16928;SDS011;8581;47.334;11.190;2023-02-28T12:18:07;5.15;;;4.75;;
16928;SDS011;8581;47.334;11.190;2023-02-28T12:20:40;5.28;;;4.78;;
16928;SDS011;8581;47.334;11.190;2023-02-28T12:23:19;4.87;;;4.47;;
16928;SDS011;8581;47.334;11.190;2023-02-28T12:26:02;5.00;;;4.60;;
16928;SDS011;8581;47.334;11.190;2023-02-28T12:28:40;5.28;;;4.80;;
16928;SDS011;8581;47.334;11.190;2023-02-28T12:31:14;5.50;;;4.85;;
16928;SDS011;8581;47.334;11.190;2023-02-28T12:33:45;4.85;;;4.45;;
16928;SDS011;8581;47.334;11.190;2023-02-28T12:36:16;4.80;;;4.40;;
16928;SDS011;8581;47.334;11.190;2023-02-28T12:38:48;4.12;;;3.83;;
16928;SDS011;8581;47.334;11.190;2023-02-28T12:41:22;3.33;;;3.02;;
16928;SDS011;8581;47.334;11.190;2023-02-28T12:43:58;2.83;;;2.52;;
16928;SDS011;8581;47.334;11.190;2023-02-28T12:46:33;3.27;;;1.98;;
16928;SDS011;8581;47.334;11.190;2023-02-28T12:49:06;2.70;;;2.50;;
16928;SDS011;8581;47.334;11.190;2023-02-28T12:51:37;2.50;;;2.30;;
16928;SDS011;8581;47.334;11.190;2023-02-28T12:54:44;3.37;;;3.08;;
16928;SDS011;8581;47.334;11.190;2023-02-28T12:57:15;3.60;;;2.87;;
16928;SDS011;8581;47.334;11.190;2023-02-28T12:59:53;2.55;;;1.77;;
16928;SDS011;8581;47.334;11.190;2023-02-28T13:02:33;3.08;;;1.45;;
16928;SDS011;8581;47.334;11.190;2023-02-28T13:05:12;3.08;;;1.67;;
16928;SDS011;8581;47.334;11.190;2023-02-28T13:08:18;3.37;;;1.77;;
16928;SDS011;8581;47.334;11.190;2023-02-28T13:10:50;1.50;;;1.40;;
16928;SDS011;8581;47.334;11.190;2023-02-28T13:13:24;2.87;;;2.08;;
16928;SDS011;8581;47.334;11.190;2023-02-28T13:16:10;3.77;;;3.47;;
16928;SDS011;8581;47.334;11.190;2023-02-28T13:18:43;5.20;;;3.77;;
16928;SDS011;8581;47.334;11.190;2023-02-28T13:21:30;3.80;;;3.50;;
16928;SDS011;8581;47.334;11.190;2023-02-28T13:24:03;4.67;;;4.37;;
16928;SDS011;8581;47.334;11.190;2023-02-28T13:29:35;5.08;;;3.75;;
16928;SDS011;8581;47.334;11.190;2023-02-28T13:32:18;5.12;;;4.80;;
16928;SDS011;8581;47.334;11.190;2023-02-28T13:37:46;4.50;;;3.62;;
16928;SDS011;8581;47.334;11.190;2023-02-28T13:40:32;3.40;;;2.45;;
16928;SDS011;8581;47.334;11.190;2023-02-28T13:43:03;2.22;;;2.02;;
16928;SDS011;8581;47.334;11.190;2023-02-28T13:45:34;2.02;;;1.92;;
16928;SDS011;8581;47.334;11.190;2023-02-28T13:48:18;2.60;;;2.40;;
16928;SDS011;8581;47.334;11.190;2023-02-28T13:50:50;2.12;;;1.90;;
16928;SDS011;8581;47.334;11.190;2023-02-28T13:53:30;2.12;;;2.00;;
16928;SDS011;8581;47.334;11.190;2023-02-28T13:58:48;3.10;;;2.85;;
16928;SDS011;8581;47.334;11.190;2023-02-28T14:01:42;5.20;;;4.80;;
16928;SDS011;8581;47.334;11.190;2023-02-28T14:04:33;4.75;;;4.35;;
16928;SDS011;8581;47.334;11.190;2023-02-28T14:07:03;5.45;;;4.92;;
16928;SDS011;8581;47.334;11.190;2023-02-28T14:09:37;4.92;;;4.53;;
16928;SDS011;8581;47.334;11.190;2023-02-28T14:12:50;6.03;;;5.53;;
16928;SDS011;8581;47.334;11.190;2023-02-28T14:14:53;5.60;;;4.97;;
16928;SDS011;8581;47.334;11.190;2023-02-28T14:17:25;6.40;;;5.75;;
16928;SDS011;8581;47.334;11.190;2023-02-28T14:19:57;5.65;;;5.15;;
16928;SDS011;8581;47.334;11.190;2023-02-28T14:22:39;4.55;;;4.22;;
16928;SDS011;8581;47.334;11.190;2023-02-28T14:25:17;4.95;;;4.55;;
16928;SDS011;8581;47.334;11.190;2023-02-28T14:27:58;5.30;;;4.90;;
16928;SDS011;8581;47.334;11.190;2023-02-28T14:30:52;6.80;;;4.70;;
16928;SDS011;8581;47.334;11.190;2023-02-28T14:33:26;5.03;;;4.33;;
16928;SDS011;8581;47.334;11.190;2023-02-28T14:36:18;5.53;;;5.12;;
16928;SDS011;8581;47.334;11.190;2023-02-28T14:38:59;4.25;;;3.95;;
16928;SDS011;8581;47.334;11.190;2023-02-28T14:41:32;2.15;;;2.05;;
16928;SDS011;8581;47.334;11.190;2023-02-28T14:44:12;2.50;;;2.30;;
16928;SDS011;8581;47.334;11.190;2023-02-28T14:46:36;2.67;;;2.47;;
16928;SDS011;8581;47.334;11.190;2023-02-28T14:49:06;3.52;;;2.15;;
16928;SDS011;8581;47.334;11.190;2023-02-28T14:51:37;2.90;;;2.70;;
16928;SDS011;8581;47.334;11.190;2023-02-28T14:54:12;2.60;;;2.40;;
16928;SDS011;8581;47.334;11.190;2023-02-28T14:56:42;3.00;;;2.70;;
16928;SDS011;8581;47.334;11.190;2023-02-28T14:59:27;2.58;;;2.33;;
16928;SDS011;8581;47.334;11.190;2023-02-28T15:04:44;2.60;;;2.50;;
16928;SDS011;8581;47.334;11.190;2023-02-28T15:07:15;3.00;;;2.80;;
16928;SDS011;8581;47.334;11.190;2023-02-28T15:09:46;2.87;;;2.67;;
16928;SDS011;8581;47.334;11.190;2023-02-28T15:12:18;2.72;;;2.52;;
16928;SDS011;8581;47.334;11.190;2023-02-28T15:14:50;3.37;;;2.62;;
16928;SDS011;8581;47.334;11.190;2023-02-28T15:17:22;2.67;;;2.47;;
16928;SDS011;8581;47.334;11.190;2023-02-28T15:19:53;2.80;;;2.60;;
16928;SDS011;8581;47.334;11.190;2023-02-28T15:22:28;2.70;;;2.50;;
16928;SDS011;8581;47.334;11.190;2023-02-28T15:24:58;2.65;;;2.45;;
16928;SDS011;8581;47.334;11.190;2023-02-28T15:27:30;3.60;;;2.90;;
16928;SDS011;8581;47.334;11.190;2023-02-28T15:30:04;3.10;;;2.90;;
16928;SDS011;8581;47.334;11.190;2023-02-28T15:32:36;2.80;;;2.60;;
16928;SDS011;8581;47.334;11.190;2023-02-28T15:37:53;6.58;;;3.10;;
16928;SDS011;8581;47.334;11.190;2023-02-28T15:40:29;3.67;;;3.37;;
16928;SDS011;8581;47.334;11.190;2023-02-28T15:43:03;3.62;;;3.42;;
16928;SDS011;8581;47.334;11.190;2023-02-28T15:45:39;4.00;;;3.70;;
16928;SDS011;8581;47.334;11.190;2023-02-28T15:48:26;4.10;;;3.80;;
16928;SDS011;8581;47.334;11.190;2023-02-28T15:51:05;3.87;;;3.58;;
16928;SDS011;8581;47.334;11.190;2023-02-28T15:53:37;3.70;;;3.40;;
16928;SDS011;8581;47.334;11.190;2023-02-28T15:56:16;4.03;;;3.72;;
16928;SDS011;8581;47.334;11.190;2023-02-28T15:58:45;4.35;;;4.05;;
16928;SDS011;8581;47.334;11.190;2023-02-28T16:01:19;4.58;;;4.17;;